sensor_id;sensor_type;location;lat;lon;timestamp;pressure;altitude;pressure_sealevel;temperature;humidity
6567;BME280;3317;43.994;22.878;2023-04-24T00:00:18;100758.03;;;15.41;58.50
6567;BME280;3317;43.994;22.878;2023-04-24T00:02:46;100733.16;;;15.35;58.52
6567;BME280;3317;43.994;22.878;2023-04-24T00:05:14;100733.28;;;15.42;57.26
6567;BME280;3317;43.994;22.878;2023-04-24T00:07:41;100735.63;;;15.45;57.43
6567;BME280;3317;43.994;22.878;2023-04-24T00:10:08;100733.56;;;15.47;57.26
6567;BME280;3317;43.994;22.878;2023-04-24T00:12:36;100724.13;;;15.50;56.74
6567;BME280;3317;43.994;22.878;2023-04-24T00:15:03;100711.16;;;15.52;56.82
6567;BME280;3317;43.994;22.878;2023-04-24T00:17:31;100711.81;;;15.54;54.81
6567;BME280;3317;43.994;22.878;2023-04-24T00:19:59;100713.53;;;15.55;54.86
6567;BME280;3317;43.994;22.878;2023-04-24T00:22:28;100715.13;;;15.49;56.26
6567;BME280;3317;43.994;22.878;2023-04-24T00:24:55;100741.50;;;15.57;57.36
6567;BME280;3317;43.994;22.878;2023-04-24T00:27:22;100751.06;;;15.53;58.48
6567;BME280;3317;43.994;22.878;2023-04-24T00:29:49;100748.72;;;15.50;58.58
6567;BME280;3317;43.994;22.878;2023-04-24T00:32:16;100750.13;;;15.46;59.26
6567;BME280;3317;43.994;22.878;2023-04-24T00:34:43;100755.59;;;15.46;59.19
6567;BME280;3317;43.994;22.878;2023-04-24T00:37:12;100747.09;;;15.41;59.70
6567;BME280;3317;43.994;22.878;2023-04-24T00:39:39;100747.41;;;15.46;59.58
6567;BME280;3317;43.994;22.878;2023-04-24T00:42:06;100734.78;;;15.45;59.36
6567;BME280;3317;43.994;22.878;2023-04-24T00:44:33;100724.91;;;15.44;57.58
6567;BME280;3317;43.994;22.878;2023-04-24T00:47:00;100707.38;;;15.38;57.76
6567;BME280;3317;43.994;22.878;2023-04-24T00:49:27;100683.91;;;15.29;60.28
6567;BME280;3317;43.994;22.878;2023-04-24T00:51:54;100696.25;;;15.40;60.56
6567;BME280;3317;43.994;22.878;2023-04-24T00:54:23;100700.03;;;15.39;60.27
6567;BME280;3317;43.994;22.878;2023-04-24T00:56:50;100688.16;;;15.31;59.24
6567;BME280;3317;43.994;22.878;2023-04-24T00:59:18;100698.97;;;15.40;59.94
6567;BME280;3317;43.994;22.878;2023-04-24T01:01:45;100684.50;;;15.39;61.22
6567;BME280;3317;43.994;22.878;2023-04-24T01:04:12;100667.06;;;15.25;62.19
6567;BME280;3317;43.994;22.878;2023-04-24T01:06:40;100659.31;;;14.99;62.72
6567;BME280;3317;43.994;22.878;2023-04-24T01:09:10;100646.00;;;14.81;63.23
6567;BME280;3317;43.994;22.878;2023-04-24T01:11:41;100637.22;;;14.47;64.46
6567;BME280;3317;43.994;22.878;2023-04-24T01:14:09;100643.50;;;14.24;65.24
6567;BME280;3317;43.994;22.878;2023-04-24T01:16:36;100648.53;;;14.12;66.34
6567;BME280;3317;43.994;22.878;2023-04-24T01:19:04;100645.44;;;14.15;66.26
6567;BME280;3317;43.994;22.878;2023-04-24T01:21:35;100623.75;;;13.99;66.32
6567;BME280;3317;43.994;22.878;2023-04-24T01:24:05;100644.44;;;14.08;66.31
6567;BME280;3317;43.994;22.878;2023-04-24T01:26:33;100651.13;;;14.05;65.91
6567;BME280;3317;43.994;22.878;2023-04-24T01:29:00;100655.72;;;14.05;65.95
6567;BME280;3317;43.994;22.878;2023-04-24T01:31:28;100658.06;;;14.08;66.28
6567;BME280;3317;43.994;22.878;2023-04-24T01:33:56;100660.81;;;14.08;65.66
6567;BME280;3317;43.994;22.878;2023-04-24T01:36:24;100647.09;;;13.93;65.98
6567;BME280;3317;43.994;22.878;2023-04-24T01:38:52;100667.00;;;13.93;66.09
6567;BME280;3317;43.994;22.878;2023-04-24T01:41:21;100668.69;;;13.94;65.86
6567;BME280;3317;43.994;22.878;2023-04-24T01:43:49;100674.16;;;13.94;65.38
6567;BME280;3317;43.994;22.878;2023-04-24T01:46:16;100653.47;;;13.77;64.98
6567;BME280;3317;43.994;22.878;2023-04-24T01:48:44;100663.31;;;13.86;65.22
6567;BME280;3317;43.994;22.878;2023-04-24T01:51:11;100674.16;;;13.94;65.07
6567;BME280;3317;43.994;22.878;2023-04-24T01:53:38;100677.38;;;13.98;64.60
6567;BME280;3317;43.994;22.878;2023-04-24T01:56:05;100691.81;;;14.07;63.79
6567;BME280;3317;43.994;22.878;2023-04-24T01:58:34;100698.41;;;14.13;64.24
6567;BME280;3317;43.994;22.878;2023-04-24T02:01:01;100703.84;;;14.21;64.05
6567;BME280;3317;43.994;22.878;2023-04-24T02:03:28;100703.97;;;14.28;64.21
6567;BME280;3317;43.994;22.878;2023-04-24T02:05:55;100704.25;;;14.33;64.11
6567;BME280;3317;43.994;22.878;2023-04-24T02:08:22;100702.53;;;14.40;63.34
6567;BME280;3317;43.994;22.878;2023-04-24T02:10:49;100696.53;;;14.45;61.96
6567;BME280;3317;43.994;22.878;2023-04-24T02:13:16;100694.09;;;14.50;62.58
6567;BME280;3317;43.994;22.878;2023-04-24T02:15:44;100692.69;;;14.54;63.08
6567;BME280;3317;43.994;22.878;2023-04-24T02:18:11;100679.72;;;14.56;63.76
6567;BME280;3317;43.994;22.878;2023-04-24T02:20:38;100672.59;;;14.55;64.20
6567;BME280;3317;43.994;22.878;2023-04-24T02:23:05;100667.25;;;14.62;63.52
6567;BME280;3317;43.994;22.878;2023-04-24T02:25:33;100662.50;;;14.64;61.73
6567;BME280;3317;43.994;22.878;2023-04-24T02:28:00;100663.97;;;14.67;62.01
6567;BME280;3317;43.994;22.878;2023-04-24T02:30:27;100658.19;;;14.70;61.72
6567;BME280;3317;43.994;22.878;2023-04-24T02:32:56;100640.78;;;14.71;61.68
6567;BME280;3317;43.994;22.878;2023-04-24T02:35:22;100623.06;;;14.67;62.42
6567;BME280;3317;43.994;22.878;2023-04-24T02:37:49;100628.91;;;14.63;63.03
6567;BME280;3317;43.994;22.878;2023-04-24T02:40:16;100624.47;;;14.62;63.46
6567;BME280;3317;43.994;22.878;2023-04-24T02:42:43;100618.16;;;14.62;63.64
6567;BME280;3317;43.994;22.878;2023-04-24T02:45:10;100620.72;;;14.63;63.70
6567;BME280;3317;43.994;22.878;2023-04-24T02:47:38;100624.09;;;14.65;63.90
6567;BME280;3317;43.994;22.878;2023-04-24T02:50:07;100631.06;;;14.68;63.03
6567;BME280;3317;43.994;22.878;2023-04-24T02:52:34;100622.72;;;14.70;62.80
6567;BME280;3317;43.994;22.878;2023-04-24T02:55:01;100611.66;;;14.63;61.13
6567;BME280;3317;43.994;22.878;2023-04-24T02:57:28;100627.84;;;14.73;61.16
6567;BME280;3317;43.994;22.878;2023-04-24T02:59:55;100613.81;;;14.76;59.71
6567;BME280;3317;43.994;22.878;2023-04-24T03:02:22;100609.22;;;14.76;58.88
6567;BME280;3317;43.994;22.878;2023-04-24T03:04:49;100609.41;;;14.75;60.92
6567;BME280;3317;43.994;22.878;2023-04-24T03:07:17;100600.56;;;14.73;63.01
6567;BME280;3317;43.994;22.878;2023-04-24T03:09:46;100587.59;;;14.75;60.93
6567;BME280;3317;43.994;22.878;2023-04-24T03:12:13;100587.75;;;14.73;59.77
6567;BME280;3317;43.994;22.878;2023-04-24T03:14:39;100601.59;;;14.72;59.12
6567;BME280;3317;43.994;22.878;2023-04-24T03:17:06;100603.28;;;14.73;59.87
6567;BME280;3317;43.994;22.878;2023-04-24T03:19:33;100600.34;;;14.74;59.10
6567;BME280;3317;43.994;22.878;2023-04-24T03:22:01;100580.47;;;14.65;58.23
6567;BME280;3317;43.994;22.878;2023-04-24T03:24:30;100596.66;;;14.67;58.01
6567;BME280;3317;43.994;22.878;2023-04-24T03:26:57;100611.63;;;14.71;59.05
6567;BME280;3317;43.994;22.878;2023-04-24T03:29:24;100623.88;;;14.75;59.83
6567;BME280;3317;43.994;22.878;2023-04-24T03:31:51;100620.13;;;14.76;58.50
6567;BME280;3317;43.994;22.878;2023-04-24T03:34:18;100626.25;;;14.78;58.59
6567;BME280;3317;43.994;22.878;2023-04-24T03:36:45;100628.97;;;14.78;59.83
6567;BME280;3317;43.994;22.878;2023-04-24T03:39:14;100637.81;;;14.81;59.71
6567;BME280;3317;43.994;22.878;2023-04-24T03:41:42;100645.16;;;14.80;58.51
6567;BME280;3317;43.994;22.878;2023-04-24T03:44:09;100645.16;;;14.80;58.17
6567;BME280;3317;43.994;22.878;2023-04-24T03:46:36;100650.81;;;14.78;60.04
6567;BME280;3317;43.994;22.878;2023-04-24T03:49:03;100652.88;;;14.76;58.92
6567;BME280;3317;43.994;22.878;2023-04-24T03:51:30;100662.91;;;14.76;59.11
6567;BME280;3317;43.994;22.878;2023-04-24T03:53:56;100665.81;;;14.74;60.32
6567;BME280;3317;43.994;22.878;2023-04-24T03:56:23;100667.88;;;14.72;61.05
6567;BME280;3317;43.994;22.878;2023-04-24T03:58:52;100666.84;;;14.73;62.83
6567;BME280;3317;43.994;22.878;2023-04-24T04:01:19;100666.03;;;14.73;62.62
6567;BME280;3317;43.994;22.878;2023-04-24T04:03:46;100659.88;;;14.71;63.15
6567;BME280;3317;43.994;22.878;2023-04-24T04:06:13;100662.44;;;14.72;64.61
6567;BME280;3317;43.994;22.878;2023-04-24T04:08:40;100667.19;;;14.70;64.27
6567;BME280;3317;43.994;22.878;2023-04-24T04:11:07;100664.13;;;14.73;63.41
6567;BME280;3317;43.994;22.878;2023-04-24T04:13:34;100662.25;;;14.74;63.23
6567;BME280;3317;43.994;22.878;2023-04-24T04:16:03;100660.38;;;14.74;62.39
6567;BME280;3317;43.994;22.878;2023-04-24T04:18:30;100667.50;;;14.75;62.83
6567;BME280;3317;43.994;22.878;2023-04-24T04:20:57;100655.78;;;14.75;62.94
6567;BME280;3317;43.994;22.878;2023-04-24T04:23:24;100657.63;;;14.74;63.31
6567;BME280;3317;43.994;22.878;2023-04-24T04:25:51;100659.34;;;14.75;63.50
6567;BME280;3317;43.994;22.878;2023-04-24T04:28:18;100650.31;;;14.75;63.81
6567;BME280;3317;43.994;22.878;2023-04-24T04:30:46;100652.88;;;14.76;62.88
6567;BME280;3317;43.994;22.878;2023-04-24T04:33:15;100658.31;;;14.76;63.30
6567;BME280;3317;43.994;22.878;2023-04-24T04:35:41;100659.34;;;14.75;63.52
6567;BME280;3317;43.994;22.878;2023-04-24T04:38:09;100654.56;;;14.77;63.71
6567;BME280;3317;43.994;22.878;2023-04-24T04:40:36;100662.75;;;14.77;63.35
6567;BME280;3317;43.994;22.878;2023-04-24T04:43:03;100656.25;;;14.78;63.78
6567;BME280;3317;43.994;22.878;2023-04-24T04:45:32;100653.31;;;14.80;63.84
6567;BME280;3317;43.994;22.878;2023-04-24T04:48:00;100663.41;;;14.80;64.19
6567;BME280;3317;43.994;22.878;2023-04-24T04:50:29;100675.16;;;14.80;63.79
6567;BME280;3317;43.994;22.878;2023-04-24T04:52:56;100669.69;;;14.80;64.04
6567;BME280;3317;43.994;22.878;2023-04-24T04:55:22;100669.53;;;14.82;64.63
6567;BME280;3317;43.994;22.878;2023-04-24T04:57:50;100673.94;;;14.83;64.63
6567;BME280;3317;43.994;22.878;2023-04-24T05:00:18;100664.13;;;14.73;64.30
6567;BME280;3317;43.994;22.878;2023-04-24T05:02:45;100673.09;;;14.82;64.29
6567;BME280;3317;43.994;22.878;2023-04-24T05:05:13;100684.00;;;14.82;64.68
6567;BME280;3317;43.994;22.878;2023-04-24T05:07:44;100690.97;;;14.85;64.47
6567;BME280;3317;43.994;22.878;2023-04-24T05:10:11;100692.88;;;14.84;63.82
6567;BME280;3317;43.994;22.878;2023-04-24T05:12:38;100691.84;;;14.85;64.04
6567;BME280;3317;43.994;22.878;2023-04-24T05:15:06;100703.41;;;14.87;63.98
6567;BME280;3317;43.994;22.878;2023-04-24T05:17:35;100692.97;;;14.91;62.05
6567;BME280;3317;43.994;22.878;2023-04-24T05:20:03;100701.63;;;14.95;65.43
6567;BME280;3317;43.994;22.878;2023-04-24T05:22:30;100696.97;;;15.03;69.54
6567;BME280;3317;43.994;22.878;2023-04-24T05:24:59;100685.31;;;15.10;71.91
6567;BME280;3317;43.994;22.878;2023-04-24T05:27:26;100695.22;;;15.26;72.19
6567;BME280;3317;43.994;22.878;2023-04-24T05:29:52;100691.19;;;15.37;72.04
6567;BME280;3317;43.994;22.878;2023-04-24T05:32:19;100703.06;;;15.44;70.50
6567;BME280;3317;43.994;22.878;2023-04-24T05:34:46;100682.81;;;15.38;68.33
6567;BME280;3317;43.994;22.878;2023-04-24T05:37:13;100688.38;;;15.45;66.94
6567;BME280;3317;43.994;22.878;2023-04-24T05:39:40;100692.97;;;15.44;66.81
6567;BME280;3317;43.994;22.878;2023-04-24T05:42:09;100691.28;;;15.43;66.14
6567;BME280;3317;43.994;22.878;2023-04-24T05:44:36;100692.97;;;15.44;66.07
6567;BME280;3317;43.994;22.878;2023-04-24T05:47:03;100687.88;;;15.41;65.89
6567;BME280;3317;43.994;22.878;2023-04-24T05:49:30;100684.50;;;15.39;66.24
6567;BME280;3317;43.994;22.878;2023-04-24T05:51:57;100690.78;;;15.40;66.58
6567;BME280;3317;43.994;22.878;2023-04-24T05:54:24;100692.88;;;15.38;66.92
6567;BME280;3317;43.994;22.878;2023-04-24T05:56:51;100692.03;;;15.37;67.43
6567;BME280;3317;43.994;22.878;2023-04-24T05:59:21;100686.09;;;15.33;67.52
6567;BME280;3317;43.994;22.878;2023-04-24T06:01:48;100686.47;;;15.30;66.72
6567;BME280;3317;43.994;22.878;2023-04-24T06:04:15;100686.09;;;15.33;67.24
6567;BME280;3317;43.994;22.878;2023-04-24T06:06:42;100684.41;;;15.32;67.17
6567;BME280;3317;43.994;22.878;2023-04-24T06:09:09;100682.59;;;15.40;68.30
6567;BME280;3317;43.994;22.878;2023-04-24T06:11:35;100687.50;;;15.44;68.88
6567;BME280;3317;43.994;22.878;2023-04-24T06:14:03;100681.47;;;15.49;69.33
6567;BME280;3317;43.994;22.878;2023-04-24T06:16:31;100671.97;;;15.45;69.59
6567;BME280;3317;43.994;22.878;2023-04-24T06:18:58;100681.66;;;15.62;69.83
6567;BME280;3317;43.994;22.878;2023-04-24T06:21:25;100675.66;;;15.67;69.87
6567;BME280;3317;43.994;22.878;2023-04-24T06:23:53;100665.59;;;15.68;69.85
6567;BME280;3317;43.994;22.878;2023-04-24T06:26:21;100678.16;;;15.84;69.50
6567;BME280;3317;43.994;22.878;2023-04-24T06:28:50;100668.03;;;15.93;68.89
6567;BME280;3317;43.994;22.878;2023-04-24T06:31:17;100673.91;;;16.11;68.80
6567;BME280;3317;43.994;22.878;2023-04-24T06:33:45;100666.25;;;16.22;68.33
6567;BME280;3317;43.994;22.878;2023-04-24T06:36:12;100661.34;;;16.32;65.42
6567;BME280;3317;43.994;22.878;2023-04-24T06:38:39;100656.13;;;16.37;64.83
6567;BME280;3317;43.994;22.878;2023-04-24T06:41:06;100656.38;;;16.42;63.05
6567;BME280;3317;43.994;22.878;2023-04-24T06:43:33;100630.72;;;16.43;61.27
6567;BME280;3317;43.994;22.878;2023-04-24T06:46:00;100640.94;;;16.56;60.74
6567;BME280;3317;43.994;22.878;2023-04-24T06:48:28;100633.84;;;16.62;59.37
6567;BME280;3317;43.994;22.878;2023-04-24T06:50:57;100622.63;;;16.79;59.63
6567;BME280;3317;43.994;22.878;2023-04-24T06:53:24;100636.78;;;16.60;56.92
6567;BME280;3317;43.994;22.878;2023-04-24T06:55:51;100617.31;;;16.70;57.50
6567;BME280;3317;43.994;22.878;2023-04-24T06:58:17;100631.19;;;16.97;58.12
6567;BME280;3317;43.994;22.878;2023-04-24T07:00:44;100626.31;;;17.21;58.02
6567;BME280;3317;43.994;22.878;2023-04-24T07:03:11;100640.50;;;17.31;57.51
6567;BME280;3317;43.994;22.878;2023-04-24T07:05:38;100643.94;;;17.47;57.37
6567;BME280;3317;43.994;22.878;2023-04-24T07:08:07;100648.72;;;17.67;57.25
6567;BME280;3317;43.994;22.878;2023-04-24T07:10:36;100649.44;;;17.89;56.61
6567;BME280;3317;43.994;22.878;2023-04-24T07:13:04;100649.09;;;18.06;56.13
6567;BME280;3317;43.994;22.878;2023-04-24T07:15:32;100644.28;;;18.14;55.59
6567;BME280;3317;43.994;22.878;2023-04-24T07:17:59;100639.63;;;18.15;55.08
6567;BME280;3317;43.994;22.878;2023-04-24T07:20:26;100634.56;;;18.12;54.59
6567;BME280;3317;43.994;22.878;2023-04-24T07:22:53;100630.38;;;18.23;54.35
6567;BME280;3317;43.994;22.878;2023-04-24T07:25:22;100625.31;;;18.26;53.69
6567;BME280;3317;43.994;22.878;2023-04-24T07:27:48;100629.56;;;18.42;53.77
6567;BME280;3317;43.994;22.878;2023-04-24T07:30:15;100625.16;;;18.55;53.71
6567;BME280;3317;43.994;22.878;2023-04-24T07:32:42;100614.38;;;18.60;52.69
6567;BME280;3317;43.994;22.878;2023-04-24T07:35:09;100601.28;;;18.62;52.94
6567;BME280;3317;43.994;22.878;2023-04-24T07:37:36;100594.13;;;18.75;52.15
6567;BME280;3317;43.994;22.878;2023-04-24T07:40:04;100585.03;;;18.81;52.36
6567;BME280;3317;43.994;22.878;2023-04-24T07:42:33;100605.94;;;18.82;52.11
6567;BME280;3317;43.994;22.878;2023-04-24T07:45:01;100637.84;;;18.83;52.07
6567;BME280;3317;43.994;22.878;2023-04-24T07:47:29;100606.59;;;18.57;52.27
6567;BME280;3317;43.994;22.878;2023-04-24T07:49:56;100657.69;;;18.98;52.18
6567;BME280;3317;43.994;22.878;2023-04-24T07:52:23;100657.94;;;19.04;52.09
6567;BME280;3317;43.994;22.878;2023-04-24T07:54:51;100649.44;;;18.98;51.85
6567;BME280;3317;43.994;22.878;2023-04-24T07:57:24;100660.44;;;19.12;52.17
6567;BME280;3317;43.994;22.878;2023-04-24T07:59:52;100664.44;;;19.09;52.37
6567;BME280;3317;43.994;22.878;2023-04-24T08:02:19;100655.38;;;19.22;52.57
6567;BME280;3317;43.994;22.878;2023-04-24T08:04:48;100650.06;;;19.34;52.50
6567;BME280;3317;43.994;22.878;2023-04-24T08:07:15;100653.19;;;19.45;52.14
6567;BME280;3317;43.994;22.878;2023-04-24T08:09:42;100653.41;;;19.56;51.64
6567;BME280;3317;43.994;22.878;2023-04-24T08:12:09;100654.41;;;19.76;52.00
6567;BME280;3317;43.994;22.878;2023-04-24T08:14:36;100654.09;;;19.91;51.65
6567;BME280;3317;43.994;22.878;2023-04-24T08:17:04;100649.19;;;20.06;51.31
6567;BME280;3317;43.994;22.878;2023-04-24T08:19:31;100655.97;;;20.10;50.94
6567;BME280;3317;43.994;22.878;2023-04-24T08:22:00;100660.53;;;20.23;51.58
6567;BME280;3317;43.994;22.878;2023-04-24T08:24:28;100659.06;;;20.28;50.80
6567;BME280;3317;43.994;22.878;2023-04-24T08:26:55;100657.03;;;20.42;50.72
6567;BME280;3317;43.994;22.878;2023-04-24T08:29:23;100652.91;;;20.58;49.93
6567;BME280;3317;43.994;22.878;2023-04-24T08:31:50;100656.78;;;20.82;50.08
6567;BME280;3317;43.994;22.878;2023-04-24T08:34:18;100651.75;;;21.04;49.05
6567;BME280;3317;43.994;22.878;2023-04-24T08:36:45;100649.88;;;21.23;48.57
6567;BME280;3317;43.994;22.878;2023-04-24T08:39:12;100653.09;;;21.39;46.93
6567;BME280;3317;43.994;22.878;2023-04-24T08:41:41;100645.56;;;21.46;46.59
6567;BME280;3317;43.994;22.878;2023-04-24T08:44:11;100652.81;;;21.66;46.88
6567;BME280;3317;43.994;22.878;2023-04-24T08:46:40;100654.22;;;21.75;46.32
6567;BME280;3317;43.994;22.878;2023-04-24T08:49:07;100646.38;;;21.91;46.80
6567;BME280;3317;43.994;22.878;2023-04-24T08:51:36;100651.25;;;22.07;46.56
6567;BME280;3317;43.994;22.878;2023-04-24T08:54:04;100634.81;;;22.13;45.94
6567;BME280;3317;43.994;22.878;2023-04-24T08:56:33;100645.66;;;22.26;45.43
6567;BME280;3317;43.994;22.878;2023-04-24T08:59:03;100638.47;;;22.25;45.85
6567;BME280;3317;43.994;22.878;2023-04-24T09:01:32;100640.81;;;22.09;46.34
6567;BME280;3317;43.994;22.878;2023-04-24T09:04:01;100638.09;;;21.91;47.05
6567;BME280;3317;43.994;22.878;2023-04-24T09:06:29;100638.34;;;21.71;48.04
6567;BME280;3317;43.994;22.878;2023-04-24T09:09:00;100626.34;;;21.39;48.94
6567;BME280;3317;43.994;22.878;2023-04-24T09:11:30;100627.91;;;21.10;49.79
6567;BME280;3317;43.994;22.878;2023-04-24T09:13:58;100630.03;;;20.89;51.16
6567;BME280;3317;43.994;22.878;2023-04-24T09:16:25;100623.00;;;20.68;52.44
6567;BME280;3317;43.994;22.878;2023-04-24T09:18:53;100631.31;;;20.61;52.45
6567;BME280;3317;43.994;22.878;2023-04-24T09:21:21;100637.69;;;20.55;52.66
6567;BME280;3317;43.994;22.878;2023-04-24T09:23:59;100637.72;;;20.48;53.20
6567;BME280;3317;43.994;22.878;2023-04-24T09:26:29;100657.09;;;20.35;53.56
6567;BME280;3317;43.994;22.878;2023-04-24T09:28:58;100666.66;;;20.25;53.15
6567;BME280;3317;43.994;22.878;2023-04-24T09:31:27;100675.19;;;20.17;53.77
6567;BME280;3317;43.994;22.878;2023-04-24T09:33:56;100670.16;;;20.07;53.75
6567;BME280;3317;43.994;22.878;2023-04-24T09:36:27;100666.38;;;20.02;54.76
6567;BME280;3317;43.994;22.878;2023-04-24T09:39:00;100669.81;;;19.83;54.85
6567;BME280;3317;43.994;22.878;2023-04-24T09:41:28;100600.88;;;19.06;54.70
6567;BME280;3317;43.994;22.878;2023-04-24T09:43:56;100667.81;;;19.38;55.06
6567;BME280;3317;43.994;22.878;2023-04-24T09:46:29;100675.03;;;19.26;55.35
6567;BME280;3317;43.994;22.878;2023-04-24T09:48:57;100680.50;;;19.26;56.43
6567;BME280;3317;43.994;22.878;2023-04-24T09:51:34;100668.91;;;19.24;56.02
6567;BME280;3317;43.994;22.878;2023-04-24T09:54:03;100669.97;;;19.23;55.68
6567;BME280;3317;43.994;22.878;2023-04-24T09:56:42;100659.19;;;19.21;55.46
6567;BME280;3317;43.994;22.878;2023-04-24T09:59:13;100665.31;;;19.17;55.53
6567;BME280;3317;43.994;22.878;2023-04-24T10:01:40;100657.91;;;19.17;55.04
6567;BME280;3317;43.994;22.878;2023-04-24T10:04:17;100645.88;;;19.05;54.89
6567;BME280;3317;43.994;22.878;2023-04-24T10:06:45;100650.09;;;19.07;54.90
6567;BME280;3317;43.994;22.878;2023-04-24T10:09:14;100642.09;;;19.06;54.55
6567;BME280;3317;43.994;22.878;2023-04-24T10:11:42;100629.38;;;18.98;54.44
6567;BME280;3317;43.994;22.878;2023-04-24T10:14:12;100632.13;;;18.98;54.17
6567;BME280;3317;43.994;22.878;2023-04-24T10:16:40;100616.50;;;18.85;54.93
6567;BME280;3317;43.994;22.878;2023-04-24T10:19:07;100605.72;;;18.77;56.51
6567;BME280;3317;43.994;22.878;2023-04-24T10:21:35;100582.50;;;18.59;55.83
6567;BME280;3317;43.994;22.878;2023-04-24T10:24:03;100608.69;;;18.68;57.06
6567;BME280;3317;43.994;22.878;2023-04-24T10:26:34;100607.41;;;18.57;58.05
6567;BME280;3317;43.994;22.878;2023-04-24T10:29:05;100599.84;;;18.53;58.28
6567;BME280;3317;43.994;22.878;2023-04-24T10:31:36;100594.34;;;18.46;58.97
6567;BME280;3317;43.994;22.878;2023-04-24T10:34:04;100579.56;;;18.27;58.66
6567;BME280;3317;43.994;22.878;2023-04-24T10:36:32;100578.69;;;18.20;58.15
6567;BME280;3317;43.994;22.878;2023-04-24T10:39:02;100577.41;;;18.09;58.53
6567;BME280;3317;43.994;22.878;2023-04-24T10:41:30;100570.81;;;17.96;59.25
6567;BME280;3317;43.994;22.878;2023-04-24T10:44:06;100568.88;;;17.83;59.98
6567;BME280;3317;43.994;22.878;2023-04-24T10:46:33;100583.53;;;17.55;59.43
6567;BME280;3317;43.994;22.878;2023-04-24T10:49:03;100582.53;;;17.70;59.49
6567;BME280;3317;43.994;22.878;2023-04-24T10:51:46;100531.88;;;17.45;59.68
6567;BME280;3317;43.994;22.878;2023-04-24T10:54:24;100571.59;;;17.77;59.82
6567;BME280;3317;43.994;22.878;2023-04-24T10:56:51;100565.88;;;17.65;59.39
6567;BME280;3317;43.994;22.878;2023-04-24T10:59:27;100561.03;;;17.67;60.21
6567;BME280;3317;43.994;22.878;2023-04-24T11:01:54;100556.22;;;17.82;60.74
6567;BME280;3317;43.994;22.878;2023-04-24T11:04:32;100548.22;;;17.81;60.25
6567;BME280;3317;43.994;22.878;2023-04-24T11:07:01;100561.94;;;17.81;58.12
6567;BME280;3317;43.994;22.878;2023-04-24T11:09:30;100563.53;;;17.62;58.88
6567;BME280;3317;43.994;22.878;2023-04-24T11:12:05;100557.03;;;17.69;58.94
6567;BME280;3317;43.994;22.878;2023-04-24T11:15:03;100560.53;;;18.05;59.20
6567;BME280;3317;43.994;22.878;2023-04-24T11:17:30;100564.34;;;18.18;59.23
6567;BME280;3317;43.994;22.878;2023-04-24T11:20:02;100563.50;;;18.30;58.53
6567;BME280;3317;43.994;22.878;2023-04-24T11:22:33;100574.47;;;18.64;58.24
6567;BME280;3317;43.994;22.878;2023-04-24T11:25:01;100570.03;;;18.90;57.98
6567;BME280;3317;43.994;22.878;2023-04-24T11:27:30;100572.78;;;19.17;56.95
6567;BME280;3317;43.994;22.878;2023-04-24T11:30:00;100554.13;;;19.33;56.57
6567;BME280;3317;43.994;22.878;2023-04-24T11:32:30;100564.34;;;19.64;56.65
6567;BME280;3317;43.994;22.878;2023-04-24T11:34:59;100550.69;;;19.90;55.89
6567;BME280;3317;43.994;22.878;2023-04-24T11:37:28;100553.56;;;20.08;55.04
6567;BME280;3317;43.994;22.878;2023-04-24T11:39:57;100551.75;;;20.28;54.90
6567;BME280;3317;43.994;22.878;2023-04-24T11:42:25;100552.19;;;20.50;54.65
6567;BME280;3317;43.994;22.878;2023-04-24T11:44:53;100543.97;;;20.68;54.50
6567;BME280;3317;43.994;22.878;2023-04-24T11:47:29;100544.72;;;20.82;54.04
6567;BME280;3317;43.994;22.878;2023-04-24T11:49:56;100533.66;;;20.89;52.62
6567;BME280;3317;43.994;22.878;2023-04-24T11:52:23;100535.09;;;21.10;52.17
6567;BME280;3317;43.994;22.878;2023-04-24T11:54:50;100529.59;;;21.29;52.00
6567;BME280;3317;43.994;22.878;2023-04-24T11:57:19;100528.91;;;21.34;51.16
6567;BME280;3317;43.994;22.878;2023-04-24T11:59:47;100520.63;;;21.52;51.29
6567;BME280;3317;43.994;22.878;2023-04-24T12:02:21;100495.84;;;21.64;51.00
6567;BME280;3317;43.994;22.878;2023-04-24T12:04:50;100486.38;;;21.42;49.88
6567;BME280;3317;43.994;22.878;2023-04-24T12:07:18;100518.78;;;21.46;49.30
6567;BME280;3317;43.994;22.878;2023-04-24T12:09:46;100510.69;;;21.63;49.78
6567;BME280;3317;43.994;22.878;2023-04-24T12:12:15;100508.16;;;21.80;49.05
6567;BME280;3317;43.994;22.878;2023-04-24T12:14:43;100494.72;;;21.53;49.47
6567;BME280;3317;43.994;22.878;2023-04-24T12:17:10;100493.09;;;21.64;49.40
6567;BME280;3317;43.994;22.878;2023-04-24T12:19:37;100480.81;;;21.79;49.65
6567;BME280;3317;43.994;22.878;2023-04-24T12:22:06;100467.28;;;21.77;49.15
6567;BME280;3317;43.994;22.878;2023-04-24T12:24:33;100472.09;;;21.94;49.87
6567;BME280;3317;43.994;22.878;2023-04-24T12:27:00;100461.50;;;22.21;49.71
6567;BME280;3317;43.994;22.878;2023-04-24T12:29:27;100442.16;;;22.21;49.32
6567;BME280;3317;43.994;22.878;2023-04-24T12:31:54;100437.38;;;22.41;49.19
6567;BME280;3317;43.994;22.878;2023-04-24T12:34:23;100446.72;;;22.63;48.41
6567;BME280;3317;43.994;22.878;2023-04-24T12:36:50;100434.88;;;22.63;48.48
6567;BME280;3317;43.994;22.878;2023-04-24T12:39:19;100434.59;;;22.76;48.35
6567;BME280;3317;43.994;22.878;2023-04-24T12:41:55;100443.13;;;22.75;47.84
6567;BME280;3317;43.994;22.878;2023-04-24T12:44:30;100434.97;;;22.80;47.87
6567;BME280;3317;43.994;22.878;2023-04-24T12:46:59;100420.88;;;22.82;47.85
6567;BME280;3317;43.994;22.878;2023-04-24T12:49:27;100412.47;;;22.88;47.75
6567;BME280;3317;43.994;22.878;2023-04-24T12:51:54;100417.63;;;22.97;47.38
6567;BME280;3317;43.994;22.878;2023-04-24T12:54:22;100415.31;;;23.05;47.17
6567;BME280;3317;43.994;22.878;2023-04-24T12:56:49;100410.63;;;23.06;47.23
6567;BME280;3317;43.994;22.878;2023-04-24T12:59:16;100402.50;;;22.87;47.19
6567;BME280;3317;43.994;22.878;2023-04-24T13:01:43;100395.56;;;22.73;47.51
6567;BME280;3317;43.994;22.878;2023-04-24T13:04:10;100401.59;;;22.70;47.82